sensor_id;sensor_type;location;lat;lon;timestamp;temperature;humidity
69715;HTU21D;56981;53.532;49.398;2023-05-24T00:01:20;22.76;28.61
69715;HTU21D;56981;53.532;49.398;2023-05-24T00:03:51;22.72;28.63
69715;HTU21D;56981;53.532;49.398;2023-05-24T00:06:18;22.68;28.72
69715;HTU21D;56981;53.532;49.398;2023-05-24T00:08:44;22.65;28.85
69715;HTU21D;56981;53.532;49.398;2023-05-24T00:11:10;22.62;28.72
69715;HTU21D;56981;53.532;49.398;2023-05-24T00:13:36;22.61;28.52
69715;HTU21D;56981;53.532;49.398;2023-05-24T00:16:02;22.63;28.58
69715;HTU21D;56981;53.532;49.398;2023-05-24T00:18:29;22.62;28.41
69715;HTU21D;56981;53.532;49.398;2023-05-24T00:20:58;22.62;28.61
69715;HTU21D;56981;53.532;49.398;2023-05-24T00:23:25;22.60;28.42
69715;HTU21D;56981;53.532;49.398;2023-05-24T00:25:51;22.57;28.55
69715;HTU21D;56981;53.532;49.398;2023-05-24T00:28:18;22.54;28.40
69715;HTU21D;56981;53.532;49.398;2023-05-24T00:30:44;22.53;28.44
69715;HTU21D;56981;53.532;49.398;2023-05-24T00:33:10;22.48;28.61
69715;HTU21D;56981;53.532;49.398;2023-05-24T00:35:36;22.47;28.68
69715;HTU21D;56981;53.532;49.398;2023-05-24T00:38:03;22.44;28.73
69715;HTU21D;56981;53.532;49.398;2023-05-24T00:40:28;22.41;28.63
69715;HTU21D;56981;53.532;49.398;2023-05-24T00:42:54;22.38;29.10
69715;HTU21D;56981;53.532;49.398;2023-05-24T00:45:20;22.36;29.19
69715;HTU21D;56981;53.532;49.398;2023-05-24T00:47:47;22.39;28.78
69715;HTU21D;56981;53.532;49.398;2023-05-24T00:50:13;22.43;28.65
69715;HTU21D;56981;53.532;49.398;2023-05-24T00:52:42;22.44;28.82
69715;HTU21D;56981;53.532;49.398;2023-05-24T00:55:08;22.44;29.31
69715;HTU21D;56981;53.532;49.398;2023-05-24T00:57:35;22.40;29.55
69715;HTU21D;56981;53.532;49.398;2023-05-24T01:00:03;22.38;29.23
69715;HTU21D;56981;53.532;49.398;2023-05-24T01:02:30;22.35;29.36
69715;HTU21D;56981;53.532;49.398;2023-05-24T01:04:57;22.32;29.35
69715;HTU21D;56981;53.532;49.398;2023-05-24T01:10:39;22.27;29.58
69715;HTU21D;56981;53.532;49.398;2023-05-24T01:15:59;22.27;29.76
69715;HTU21D;56981;53.532;49.398;2023-05-24T01:18:31;22.29;29.93
69715;HTU21D;56981;53.532;49.398;2023-05-24T01:27:16;22.66;29.04
69715;HTU21D;56981;53.532;49.398;2023-05-24T01:29:42;23.12;28.41
69715;HTU21D;56981;53.532;49.398;2023-05-24T01:32:09;23.01;28.55
69715;HTU21D;56981;53.532;49.398;2023-05-24T01:34:35;23.00;28.45
69715;HTU21D;56981;53.532;49.398;2023-05-24T01:37:01;23.08;28.09
69715;HTU21D;56981;53.532;49.398;2023-05-24T01:39:28;23.06;28.56
69715;HTU21D;56981;53.532;49.398;2023-05-24T01:42:16;23.26;28.31
69715;HTU21D;56981;53.532;49.398;2023-05-24T01:45:13;23.71;27.64
69715;HTU21D;56981;53.532;49.398;2023-05-24T01:48:03;23.50;28.15
69715;HTU21D;56981;53.532;49.398;2023-05-24T01:50:34;23.28;28.45
69715;HTU21D;56981;53.532;49.398;2023-05-24T01:53:05;23.10;28.61
69715;HTU21D;56981;53.532;49.398;2023-05-24T01:55:32;22.98;29.09
69715;HTU21D;56981;53.532;49.398;2023-05-24T01:58:01;22.96;29.30
69715;HTU21D;56981;53.532;49.398;2023-05-24T02:00:28;22.96;29.54
69715;HTU21D;56981;53.532;49.398;2023-05-24T02:02:56;22.87;29.84
69715;HTU21D;56981;53.532;49.398;2023-05-24T02:05:22;22.79;29.56
69715;HTU21D;56981;53.532;49.398;2023-05-24T02:07:48;22.67;29.80
69715;HTU21D;56981;53.532;49.398;2023-05-24T02:10:14;22.70;29.99
69715;HTU21D;56981;53.532;49.398;2023-05-24T02:12:40;22.67;30.41
69715;HTU21D;56981;53.532;49.398;2023-05-24T02:15:07;22.69;30.05
69715;HTU21D;56981;53.532;49.398;2023-05-24T02:17:33;22.66;30.16
69715;HTU21D;56981;53.532;49.398;2023-05-24T02:20:00;22.65;30.28
69715;HTU21D;56981;53.532;49.398;2023-05-24T02:22:26;22.70;30.18
69715;HTU21D;56981;53.532;49.398;2023-05-24T02:24:53;22.69;29.81
69715;HTU21D;56981;53.532;49.398;2023-05-24T02:27:19;22.67;30.80
69715;HTU21D;56981;53.532;49.398;2023-05-24T02:29:45;22.71;30.29
69715;HTU21D;56981;53.532;49.398;2023-05-24T02:32:12;22.73;30.78
69715;HTU21D;56981;53.532;49.398;2023-05-24T02:34:38;22.77;30.00
69715;HTU21D;56981;53.532;49.398;2023-05-24T02:37:04;22.72;29.83
69715;HTU21D;56981;53.532;49.398;2023-05-24T02:39:30;22.71;29.83
69715;HTU21D;56981;53.532;49.398;2023-05-24T02:41:56;22.70;30.15
69715;HTU21D;56981;53.532;49.398;2023-05-24T02:44:23;22.78;30.66
69715;HTU21D;56981;53.532;49.398;2023-05-24T02:46:49;22.75;30.27
69715;HTU21D;56981;53.532;49.398;2023-05-24T02:49:15;22.77;29.81
69715;HTU21D;56981;53.532;49.398;2023-05-24T02:51:41;22.86;29.82
69715;HTU21D;56981;53.532;49.398;2023-05-24T02:54:07;22.96;29.90
69715;HTU21D;56981;53.532;49.398;2023-05-24T02:56:33;22.86;30.49
69715;HTU21D;56981;53.532;49.398;2023-05-24T02:58:59;22.86;30.09
69715;HTU21D;56981;53.532;49.398;2023-05-24T03:01:25;22.86;30.27
69715;HTU21D;56981;53.532;49.398;2023-05-24T03:03:51;22.94;29.85
69715;HTU21D;56981;53.532;49.398;2023-05-24T03:06:17;22.98;29.55
69715;HTU21D;56981;53.532;49.398;2023-05-24T03:08:43;23.14;30.09
69715;HTU21D;56981;53.532;49.398;2023-05-24T03:11:09;23.26;29.60
69715;HTU21D;56981;53.532;49.398;2023-05-24T03:13:35;23.37;29.84
69715;HTU21D;56981;53.532;49.398;2023-05-24T03:16:01;23.47;29.72
69715;HTU21D;56981;53.532;49.398;2023-05-24T03:18:27;23.81;29.21
69715;HTU21D;56981;53.532;49.398;2023-05-24T03:20:53;24.11;28.54
69715;HTU21D;56981;53.532;49.398;2023-05-24T03:23:19;25.73;25.37
69715;HTU21D;56981;53.532;49.398;2023-05-24T03:25:45;26.80;25.27
69715;HTU21D;56981;53.532;49.398;2023-05-24T03:28:11;26.72;23.84
69715;HTU21D;56981;53.532;49.398;2023-05-24T03:30:39;26.37;24.70
69715;HTU21D;56981;53.532;49.398;2023-05-24T03:33:05;26.01;25.23
69715;HTU21D;56981;53.532;49.398;2023-05-24T03:35:31;25.67;25.32
69715;HTU21D;56981;53.532;49.398;2023-05-24T03:37:57;25.42;25.81
69715;HTU21D;56981;53.532;49.398;2023-05-24T03:40:23;25.29;25.60
69715;HTU21D;56981;53.532;49.398;2023-05-24T03:42:50;25.25;25.62
69715;HTU21D;56981;53.532;49.398;2023-05-24T03:45:16;25.29;26.26
69715;HTU21D;56981;53.532;49.398;2023-05-24T03:47:42;25.28;25.53
69715;HTU21D;56981;53.532;49.398;2023-05-24T03:50:08;25.39;25.71
69715;HTU21D;56981;53.532;49.398;2023-05-24T03:52:34;25.50;25.91
69715;HTU21D;56981;53.532;49.398;2023-05-24T03:55:01;25.62;25.04
69715;HTU21D;56981;53.532;49.398;2023-05-24T03:57:27;25.57;25.18
69715;HTU21D;56981;53.532;49.398;2023-05-24T03:59:53;25.42;26.00
69715;HTU21D;56981;53.532;49.398;2023-05-24T04:02:19;25.39;26.03
69715;HTU21D;56981;53.532;49.398;2023-05-24T04:04:45;25.50;25.68
69715;HTU21D;56981;53.532;49.398;2023-05-24T04:07:11;25.73;25.51
69715;HTU21D;56981;53.532;49.398;2023-05-24T04:09:38;25.71;25.94
69715;HTU21D;56981;53.532;49.398;2023-05-24T04:12:05;25.74;25.48
69715;HTU21D;56981;53.532;49.398;2023-05-24T04:14:31;26.57;24.26
69715;HTU21D;56981;53.532;49.398;2023-05-24T04:16:57;26.92;24.75
69715;HTU21D;56981;53.532;49.398;2023-05-24T04:19:23;27.78;22.88
69715;HTU21D;56981;53.532;49.398;2023-05-24T04:21:49;28.80;21.50
69715;HTU21D;56981;53.532;49.398;2023-05-24T04:24:15;29.49;20.46
69715;HTU21D;56981;53.532;49.398;2023-05-24T04:26:41;29.59;20.25
69715;HTU21D;56981;53.532;49.398;2023-05-24T04:29:07;29.68;21.24
69715;HTU21D;56981;53.532;49.398;2023-05-24T04:31:34;28.56;22.64
69715;HTU21D;56981;53.532;49.398;2023-05-24T04:34:01;28.60;22.09
69715;HTU21D;56981;53.532;49.398;2023-05-24T04:36:27;28.03;23.33
69715;HTU21D;56981;53.532;49.398;2023-05-24T04:38:53;27.78;24.04
69715;HTU21D;56981;53.532;49.398;2023-05-24T04:41:21;27.45;24.12
69715;HTU21D;56981;53.532;49.398;2023-05-24T04:43:47;27.08;24.59
69715;HTU21D;56981;53.532;49.398;2023-05-24T04:46:16;27.37;23.55
69715;HTU21D;56981;53.532;49.398;2023-05-24T04:48:42;27.47;23.21
69715;HTU21D;56981;53.532;49.398;2023-05-24T04:51:08;27.54;23.25
69715;HTU21D;56981;53.532;49.398;2023-05-24T04:53:34;27.50;24.32
69715;HTU21D;56981;53.532;49.398;2023-05-24T04:56:00;27.93;23.69
69715;HTU21D;56981;53.532;49.398;2023-05-24T04:58:26;28.11;23.31
69715;HTU21D;56981;53.532;49.398;2023-05-24T05:00:52;29.19;21.52
69715;HTU21D;56981;53.532;49.398;2023-05-24T05:03:18;29.72;21.32
69715;HTU21D;56981;53.532;49.398;2023-05-24T05:05:44;30.79;19.68
69715;HTU21D;56981;53.532;49.398;2023-05-24T05:08:11;31.46;18.97
69715;HTU21D;56981;53.532;49.398;2023-05-24T05:10:36;31.67;17.99
69715;HTU21D;56981;53.532;49.398;2023-05-24T05:13:02;32.42;17.23
69715;HTU21D;56981;53.532;49.398;2023-05-24T05:15:29;33.07;16.38
69715;HTU21D;56981;53.532;49.398;2023-05-24T05:17:55;33.33;16.22
69715;HTU21D;56981;53.532;49.398;2023-05-24T05:20:21;33.34;16.48
69715;HTU21D;56981;53.532;49.398;2023-05-24T05:22:48;33.40;15.76
69715;HTU21D;56981;53.532;49.398;2023-05-24T05:25:14;33.67;15.59
69715;HTU21D;56981;53.532;49.398;2023-05-24T05:27:40;33.42;16.32
69715;HTU21D;56981;53.532;49.398;2023-05-24T05:30:07;33.91;15.09
69715;HTU21D;56981;53.532;49.398;2023-05-24T05:32:33;33.85;16.37
69715;HTU21D;56981;53.532;49.398;2023-05-24T05:34:59;33.86;15.74
69715;HTU21D;56981;53.532;49.398;2023-05-24T05:37:25;34.03;14.90
69715;HTU21D;56981;53.532;49.398;2023-05-24T05:39:51;34.15;15.04
69715;HTU21D;56981;53.532;49.398;2023-05-24T05:42:17;34.26;15.39
69715;HTU21D;56981;53.532;49.398;2023-05-24T05:44:43;34.69;13.66
69715;HTU21D;56981;53.532;49.398;2023-05-24T05:47:09;34.99;14.42
69715;HTU21D;56981;53.532;49.398;2023-05-24T05:49:35;35.69;12.76
69715;HTU21D;56981;53.532;49.398;2023-05-24T05:52:02;35.43;13.54
69715;HTU21D;56981;53.532;49.398;2023-05-24T05:54:28;34.91;12.71
69715;HTU21D;56981;53.532;49.398;2023-05-24T05:56:57;34.59;13.38
69715;HTU21D;56981;53.532;49.398;2023-05-24T05:59:23;34.53;13.91
69715;HTU21D;56981;53.532;49.398;2023-05-24T06:01:50;34.89;13.16
69715;HTU21D;56981;53.532;49.398;2023-05-24T06:04:16;35.22;12.94
69715;HTU21D;56981;53.532;49.398;2023-05-24T06:06:43;35.35;12.40
69715;HTU21D;56981;53.532;49.398;2023-05-24T06:09:16;35.55;12.31
69715;HTU21D;56981;53.532;49.398;2023-05-24T06:11:43;35.27;12.42
69715;HTU21D;56981;53.532;49.398;2023-05-24T06:14:10;35.23;12.89
69715;HTU21D;56981;53.532;49.398;2023-05-24T06:16:37;34.94;13.20
69715;HTU21D;56981;53.532;49.398;2023-05-24T06:19:08;34.94;13.27
69715;HTU21D;56981;53.532;49.398;2023-05-24T06:21:34;34.73;13.12
69715;HTU21D;56981;53.532;49.398;2023-05-24T06:26:50;34.56;13.15
69715;HTU21D;56981;53.532;49.398;2023-05-24T06:29:17;34.82;13.13
69715;HTU21D;56981;53.532;49.398;2023-05-24T06:31:47;34.86;13.24
69715;HTU21D;56981;53.532;49.398;2023-05-24T06:34:14;34.97;13.88
69715;HTU21D;56981;53.532;49.398;2023-05-24T06:36:46;34.92;13.78
69715;HTU21D;56981;53.532;49.398;2023-05-24T06:39:14;35.15;12.75
69715;HTU21D;56981;53.532;49.398;2023-05-24T06:41:42;35.21;13.35
69715;HTU21D;56981;53.532;49.398;2023-05-24T06:44:09;35.60;12.59
69715;HTU21D;56981;53.532;49.398;2023-05-24T06:46:36;35.39;13.84
69715;HTU21D;56981;53.532;49.398;2023-05-24T06:49:02;35.44;12.71
69715;HTU21D;56981;53.532;49.398;2023-05-24T06:51:29;35.47;12.58
69715;HTU21D;56981;53.532;49.398;2023-05-24T06:53:56;35.45;12.96
69715;HTU21D;56981;53.532;49.398;2023-05-24T06:56:22;35.26;13.30
69715;HTU21D;56981;53.532;49.398;2023-05-24T06:58:49;35.07;13.65
69715;HTU21D;56981;53.532;49.398;2023-05-24T07:01:15;35.19;13.71
69715;HTU21D;56981;53.532;49.398;2023-05-24T07:03:43;35.34;13.42
69715;HTU21D;56981;53.532;49.398;2023-05-24T07:06:10;35.25;13.31
69715;HTU21D;56981;53.532;49.398;2023-05-24T07:08:40;35.44;12.96
69715;HTU21D;56981;53.532;49.398;2023-05-24T07:11:09;35.23;13.47
69715;HTU21D;56981;53.532;49.398;2023-05-24T07:13:35;35.28;13.79
69715;HTU21D;56981;53.532;49.398;2023-05-24T07:16:02;35.39;12.94
69715;HTU21D;56981;53.532;49.398;2023-05-24T07:18:29;35.40;12.97
69715;HTU21D;56981;53.532;49.398;2023-05-24T07:20:55;35.29;13.34
69715;HTU21D;56981;53.532;49.398;2023-05-24T07:23:21;35.53;14.20
69715;HTU21D;56981;53.532;49.398;2023-05-24T07:25:47;35.16;13.70
69715;HTU21D;56981;53.532;49.398;2023-05-24T07:28:14;34.88;13.81
69715;HTU21D;56981;53.532;49.398;2023-05-24T07:30:42;34.89;14.68
69715;HTU21D;56981;53.532;49.398;2023-05-24T07:33:09;35.16;13.72
69715;HTU21D;56981;53.532;49.398;2023-05-24T07:35:36;35.19;14.57
69715;HTU21D;56981;53.532;49.398;2023-05-24T07:38:03;35.30;13.18
69715;HTU21D;56981;53.532;49.398;2023-05-24T07:40:29;35.31;13.61
69715;HTU21D;56981;53.532;49.398;2023-05-24T07:42:56;35.56;13.54
69715;HTU21D;56981;53.532;49.398;2023-05-24T07:45:22;35.72;13.36
69715;HTU21D;56981;53.532;49.398;2023-05-24T07:47:48;35.81;13.17
69715;HTU21D;56981;53.532;49.398;2023-05-24T07:50:14;35.72;12.94
69715;HTU21D;56981;53.532;49.398;2023-05-24T07:52:41;35.23;13.54
69715;HTU21D;56981;53.532;49.398;2023-05-24T07:55:10;35.03;12.82
69715;HTU21D;56981;53.532;49.398;2023-05-24T07:57:42;35.08;12.75
69715;HTU21D;56981;53.532;49.398;2023-05-24T08:00:09;35.12;12.27
69715;HTU21D;56981;53.532;49.398;2023-05-24T08:02:42;35.10;11.87
69715;HTU21D;56981;53.532;49.398;2023-05-24T08:05:12;34.84;12.44
69715;HTU21D;56981;53.532;49.398;2023-05-24T08:07:39;34.77;12.93
69715;HTU21D;56981;53.532;49.398;2023-05-24T08:10:08;34.91;12.07
69715;HTU21D;56981;53.532;49.398;2023-05-24T08:12:37;34.57;12.07
69715;HTU21D;56981;53.532;49.398;2023-05-24T08:15:04;34.65;11.94
69715;HTU21D;56981;53.532;49.398;2023-05-24T08:17:31;34.31;12.19
69715;HTU21D;56981;53.532;49.398;2023-05-24T08:19:57;34.04;12.07
69715;HTU21D;56981;53.532;49.398;2023-05-24T08:22:23;34.15;11.58
69715;HTU21D;56981;53.532;49.398;2023-05-24T08:24:50;34.19;11.79
69715;HTU21D;56981;53.532;49.398;2023-05-24T08:27:17;34.14;11.64
69715;HTU21D;56981;53.532;49.398;2023-05-24T08:29:43;34.01;12.69
69715;HTU21D;56981;53.532;49.398;2023-05-24T08:32:10;33.81;11.90
69715;HTU21D;56981;53.532;49.398;2023-05-24T08:34:36;33.80;11.91
69715;HTU21D;56981;53.532;49.398;2023-05-24T08:37:03;33.80;12.04
69715;HTU21D;56981;53.532;49.398;2023-05-24T08:39:29;33.80;12.34
69715;HTU21D;56981;53.532;49.398;2023-05-24T08:41:57;33.75;12.78
69715;HTU21D;56981;53.532;49.398;2023-05-24T08:44:24;33.75;12.55
69715;HTU21D;56981;53.532;49.398;2023-05-24T08:46:52;33.85;12.81
69715;HTU21D;56981;53.532;49.398;2023-05-24T08:49:18;33.49;11.85
69715;HTU21D;56981;53.532;49.398;2023-05-24T08:51:46;33.23;13.66
69715;HTU21D;56981;53.532;49.398;2023-05-24T08:54:13;33.37;13.40
69715;HTU21D;56981;53.532;49.398;2023-05-24T08:56:40;33.03;13.62
69715;HTU21D;56981;53.532;49.398;2023-05-24T08:59:07;32.87;13.81
69715;HTU21D;56981;53.532;49.398;2023-05-24T09:01:36;32.68;14.06
69715;HTU21D;56981;53.532;49.398;2023-05-24T09:04:05;32.40;13.55
69715;HTU21D;56981;53.532;49.398;2023-05-24T09:06:31;32.41;13.73
69715;HTU21D;56981;53.532;49.398;2023-05-24T09:08:58;32.27;13.76
69715;HTU21D;56981;53.532;49.398;2023-05-24T09:11:26;32.54;13.97
69715;HTU21D;56981;53.532;49.398;2023-05-24T09:13:54;32.53;13.27
69715;HTU21D;56981;53.532;49.398;2023-05-24T09:16:21;32.32;14.07
69715;HTU21D;56981;53.532;49.398;2023-05-24T09:18:47;32.32;13.86
69715;HTU21D;56981;53.532;49.398;2023-05-24T09:21:13;32.32;13.96
69715;HTU21D;56981;53.532;49.398;2023-05-24T09:23:40;32.12;13.65
69715;HTU21D;56981;53.532;49.398;2023-05-24T09:26:07;32.26;14.16
69715;HTU21D;56981;53.532;49.398;2023-05-24T09:28:34;32.35;13.23
69715;HTU21D;56981;53.532;49.398;2023-05-24T09:31:02;32.12;14.22
69715;HTU21D;56981;53.532;49.398;2023-05-24T09:33:32;32.11;14.17
69715;HTU21D;56981;53.532;49.398;2023-05-24T09:36:01;32.24;14.88
69715;HTU21D;56981;53.532;49.398;2023-05-24T09:38:27;32.32;14.90
69715;HTU21D;56981;53.532;49.398;2023-05-24T09:41:05;32.08;13.38
69715;HTU21D;56981;53.532;49.398;2023-05-24T09:43:33;31.86;13.06
69715;HTU21D;56981;53.532;49.398;2023-05-24T09:46:04;31.74;13.41
69715;HTU21D;56981;53.532;49.398;2023-05-24T09:48:30;31.60;13.54
69715;HTU21D;56981;53.532;49.398;2023-05-24T09:51:06;31.44;14.03
69715;HTU21D;56981;53.532;49.398;2023-05-24T09:53:36;31.61;14.91
69715;HTU21D;56981;53.532;49.398;2023-05-24T09:56:03;31.52;13.95
69715;HTU21D;56981;53.532;49.398;2023-05-24T09:58:30;31.42;14.15
69715;HTU21D;56981;53.532;49.398;2023-05-24T10:01:09;31.30;14.38
69715;HTU21D;56981;53.532;49.398;2023-05-24T10:03:37;31.19;14.56
69715;HTU21D;56981;53.532;49.398;2023-05-24T10:06:04;31.22;14.67
69715;HTU21D;56981;53.532;49.398;2023-05-24T10:08:33;31.29;14.94
69715;HTU21D;56981;53.532;49.398;2023-05-24T10:11:01;31.21;14.20
69715;HTU21D;56981;53.532;49.398;2023-05-24T10:13:29;31.09;14.36
69715;HTU21D;56981;53.532;49.398;2023-05-24T10:15:56;31.16;14.39
69715;HTU21D;56981;53.532;49.398;2023-05-24T10:18:23;31.18;15.36
69715;HTU21D;56981;53.532;49.398;2023-05-24T10:20:50;31.15;15.30
69715;HTU21D;56981;53.532;49.398;2023-05-24T10:23:19;31.13;15.00
69715;HTU21D;56981;53.532;49.398;2023-05-24T10:25:58;31.06;14.46
69715;HTU21D;56981;53.532;49.398;2023-05-24T10:28:29;31.06;14.49
69715;HTU21D;56981;53.532;49.398;2023-05-24T10:31:09;30.95;13.99
69715;HTU21D;56981;53.532;49.398;2023-05-24T10:33:36;30.81;14.05
69715;HTU21D;56981;53.532;49.398;2023-05-24T10:36:05;30.72;14.39
69715;HTU21D;56981;53.532;49.398;2023-05-24T10:38:31;30.79;13.97
69715;HTU21D;56981;53.532;49.398;2023-05-24T10:40:58;30.78;14.65
69715;HTU21D;56981;53.532;49.398;2023-05-24T10:43:25;30.76;15.39
69715;HTU21D;56981;53.532;49.398;2023-05-24T10:45:51;30.85;14.84
69715;HTU21D;56981;53.532;49.398;2023-05-24T10:50:52;30.82;14.31
69715;HTU21D;56981;53.532;49.398;2023-05-24T10:53:23;30.87;14.55
69715;HTU21D;56981;53.532;49.398;2023-05-24T10:55:57;30.81;14.63
69715;HTU21D;56981;53.532;49.398;2023-05-24T11:01:29;30.84;15.45
69715;HTU21D;56981;53.532;49.398;2023-05-24T11:04:10;30.79;14.39
69715;HTU21D;56981;53.532;49.398;2023-05-24T11:06:55;30.81;13.95
69715;HTU21D;56981;53.532;49.398;2023-05-24T11:09:22;30.81;14.30
69715;HTU21D;56981;53.532;49.398;2023-05-24T11:11:53;30.74;13.61
69715;HTU21D;56981;53.532;49.398;2023-05-24T11:14:28;30.72;14.30
69715;HTU21D;56981;53.532;49.398;2023-05-24T11:16:55;30.66;14.44
69715;HTU21D;56981;53.532;49.398;2023-05-24T11:19:23;30.55;14.65
69715;HTU21D;56981;53.532;49.398;2023-05-24T11:21:51;30.62;14.85
69715;HTU21D;56981;53.532;49.398;2023-05-24T11:24:23;30.57;14.45
69715;HTU21D;56981;53.532;49.398;2023-05-24T11:26:50;30.51;14.51
69715;HTU21D;56981;53.532;49.398;2023-05-24T11:29:17;30.53;14.62
69715;HTU21D;56981;53.532;49.398;2023-05-24T11:31:57;30.46;14.40
69715;HTU21D;56981;53.532;49.398;2023-05-24T11:34:28;30.44;14.01
69715;HTU21D;56981;53.532;49.398;2023-05-24T11:36:55;30.46;14.71
69715;HTU21D;56981;53.532;49.398;2023-05-24T11:39:21;30.45;14.71
69715;HTU21D;56981;53.532;49.398;2023-05-24T11:41:52;30.44;14.88
69715;HTU21D;56981;53.532;49.398;2023-05-24T11:44:18;30.46;15.17
69715;HTU21D;56981;53.532;49.398;2023-05-24T11:46:45;30.39;14.68
69715;HTU21D;56981;53.532;49.398;2023-05-24T11:49:13;30.38;15.04
69715;HTU21D;56981;53.532;49.398;2023-05-24T11:51:39;30.42;15.55
69715;HTU21D;56981;53.532;49.398;2023-05-24T11:54:05;30.42;14.28
69715;HTU21D;56981;53.532;49.398;2023-05-24T11:56:31;30.33;14.42
69715;HTU21D;56981;53.532;49.398;2023-05-24T11:59:08;30.30;14.44
69715;HTU21D;56981;53.532;49.398;2023-05-24T12:01:34;30.25;14.84
69715;HTU21D;56981;53.532;49.398;2023-05-24T12:04:00;30.17;14.65
69715;HTU21D;56981;53.532;49.398;2023-05-24T12:06:40;30.20;14.92
69715;HTU21D;56981;53.532;49.398;2023-05-24T12:09:08;30.25;15.42
69715;HTU21D;56981;53.532;49.398;2023-05-24T12:11:40;30.22;14.45
69715;HTU21D;56981;53.532;49.398;2023-05-24T12:14:13;30.16;14.23
69715;HTU21D;56981;53.532;49.398;2023-05-24T12:16:41;30.16;14.58
69715;HTU21D;56981;53.532;49.398;2023-05-24T12:19:17;30.11;15.40
69715;HTU21D;56981;53.532;49.398;2023-05-24T12:21:44;30.06;14.74
69715;HTU21D;56981;53.532;49.398;2023-05-24T12:24:11;30.12;15.16
69715;HTU21D;56981;53.532;49.398;2023-05-24T12:26:46;30.07;15.08
69715;HTU21D;56981;53.532;49.398;2023-05-24T12:29:13;29.97;14.68
69715;HTU21D;56981;53.532;49.398;2023-05-24T12:31:41;29.91;15.13
69715;HTU21D;56981;53.532;49.398;2023-05-24T12:34:16;29.97;16.49
69715;HTU21D;56981;53.532;49.398;2023-05-24T12:36:42;29.98;15.35
69715;HTU21D;56981;53.532;49.398;2023-05-24T12:41:44;29.91;15.61
69715;HTU21D;56981;53.532;49.398;2023-05-24T12:44:14;29.95;15.00
69715;HTU21D;56981;53.532;49.398;2023-05-24T12:46:41;29.95;16.04
69715;HTU21D;56981;53.532;49.398;2023-05-24T12:49:07;29.92;16.11
69715;HTU21D;56981;53.532;49.398;2023-05-24T12:51:34;29.88;16.42
69715;HTU21D;56981;53.532;49.398;2023-05-24T12:54:01;29.83;16.13
69715;HTU21D;56981;53.532;49.398;2023-05-24T12:56:29;29.80;16.90
69715;HTU21D;56981;53.532;49.398;2023-05-24T12:58:55;29.79;16.00
69715;HTU21D;56981;53.532;49.398;2023-05-24T13:01:21;29.77;15.93
69715;HTU21D;56981;53.532;49.398;2023-05-24T13:03:49;29.76;16.02
69715;HTU21D;56981;53.532;49.398;2023-05-24T13:06:15;29.77;16.64
69715;HTU21D;56981;53.532;49.398;2023-05-24T13:08:42;29.78;16.65
69715;HTU21D;56981;53.532;49.398;2023-05-24T13:11:08;29.68;16.38
69715;HTU21D;56981;53.532;49.398;2023-05-24T13:13:34;29.68;16.87
69715;HTU21D;56981;53.532;49.398;2023-05-24T13:16:00;29.66;16.20
69715;HTU21D;56981;53.532;49.398;2023-05-24T13:18:27;29.64;16.40
69715;HTU21D;56981;53.532;49.398;2023-05-24T13:20:53;29.59;15.95
69715;HTU21D;56981;53.532;49.398;2023-05-24T13:23:19;29.59;16.03
69715;HTU21D;56981;53.532;49.398;2023-05-24T13:25:45;29.59;16.19
69715;HTU21D;56981;53.532;49.398;2023-05-24T13:28:11;29.54;16.13
69715;HTU21D;56981;53.532;49.398;2023-05-24T13:30:38;29.50;15.99
69715;HTU21D;56981;53.532;49.398;2023-05-24T13:33:04;29.44;17.09
69715;HTU21D;56981;53.532;49.398;2023-05-24T13:35:30;29.41;16.55
69715;HTU21D;56981;53.532;49.398;2023-05-24T13:37:56;29.38;17.30
69715;HTU21D;56981;53.532;49.398;2023-05-24T13:40:23;29.33;16.42
69715;HTU21D;56981;53.532;49.398;2023-05-24T13:42:50;29.32;17.19
69715;HTU21D;56981;53.532;49.398;2023-05-24T13:45:17;29.33;17.12
69715;HTU21D;56981;53.532;49.398;2023-05-24T13:47:43;29.32;17.18
69715;HTU21D;56981;53.532;49.398;2023-05-24T13:50:09;29.28;17.02
69715;HTU21D;56981;53.532;49.398;2023-05-24T13:52:35;29.22;17.07
69715;HTU21D;56981;53.532;49.398;2023-05-24T13:55:03;29.22;17.47
69715;HTU21D;56981;53.532;49.398;2023-05-24T13:57:29;29.18;17.58
69715;HTU21D;56981;53.532;49.398;2023-05-24T13:59:56;29.13;16.76
69715;HTU21D;56981;53.532;49.398;2023-05-24T14:02:22;29.12;17.17
69715;HTU21D;56981;53.532;49.398;2023-05-24T14:04:48;29.09;17.69
69715;HTU21D;56981;53.532;49.398;2023-05-24T14:07:14;29.06;17.45
69715;HTU21D;56981;53.532;49.398;2023-05-24T14:09:41;29.02;17.32
69715;HTU21D;56981;53.532;49.398;2023-05-24T14:12:07;29.00;17.48
69715;HTU21D;56981;53.532;49.398;2023-05-24T14:14:33;29.01;17.71
69715;HTU21D;56981;53.532;49.398;2023-05-24T14:17:00;28.97;16.32
69715;HTU21D;56981;53.532;49.398;2023-05-24T14:19:26;28.95;17.22
69715;HTU21D;56981;53.532;49.398;2023-05-24T14:21:52;28.93;16.71
69715;HTU21D;56981;53.532;49.398;2023-05-24T14:24:18;28.91;16.09
69715;HTU21D;56981;53.532;49.398;2023-05-24T14:26:44;28.88;16.59
69715;HTU21D;56981;53.532;49.398;2023-05-24T14:29:12;28.83;16.80
69715;HTU21D;56981;53.532;49.398;2023-05-24T14:31:38;28.80;17.01
69715;HTU21D;56981;53.532;49.398;2023-05-24T14:34:08;28.79;17.50
69715;HTU21D;56981;53.532;49.398;2023-05-24T14:36:38;28.77;18.12
69715;HTU21D;56981;53.532;49.398;2023-05-24T14:39:06;28.74;18.28
69715;HTU21D;56981;53.532;49.398;2023-05-24T14:41:33;28.70;17.93
69715;HTU21D;56981;53.532;49.398;2023-05-24T14:43:59;28.62;17.39
69715;HTU21D;56981;53.532;49.398;2023-05-24T14:46:26;28.58;17.31
69715;HTU21D;56981;53.532;49.398;2023-05-24T14:48:52;28.57;17.51
69715;HTU21D;56981;53.532;49.398;2023-05-24T14:51:18;28.55;18.39
69715;HTU21D;56981;53.532;49.398;2023-05-24T14:53:44;28.50;17.90
69715;HTU21D;56981;53.532;49.398;2023-05-24T14:56:11;28.47;18.30
69715;HTU21D;56981;53.532;49.398;2023-05-24T14:58:39;28.47;18.87
69715;HTU21D;56981;53.532;49.398;2023-05-24T15:01:05;28.44;18.96
69715;HTU21D;56981;53.532;49.398;2023-05-24T15:03:33;28.38;18.63
69715;HTU21D;56981;53.532;49.398;2023-05-24T15:06:00;28.34;18.73
69715;HTU21D;56981;53.532;49.398;2023-05-24T15:08:26;28.32;18.44
69715;HTU21D;56981;53.532;49.398;2023-05-24T15:10:52;28.28;19.03
69715;HTU21D;56981;53.532;49.398;2023-05-24T15:13:19;28.21;18.86
69715;HTU21D;56981;53.532;49.398;2023-05-24T15:15:45;28.17;19.19
69715;HTU21D;56981;53.532;49.398;2023-05-24T15:18:11;28.14;18.84
69715;HTU21D;56981;53.532;49.398;2023-05-24T15:20:37;28.09;19.28
69715;HTU21D;56981;53.532;49.398;2023-05-24T15:23:03;28.06;19.09
69715;HTU21D;56981;53.532;49.398;2023-05-24T15:25:29;27.99;19.10
69715;HTU21D;56981;53.532;49.398;2023-05-24T15:27:55;27.95;19.09